Terminal Aerodrome Forecast
Issued by NWS

Home | Current Version | Previous Version | Graphics & Text | Print | Product List | Glossary On
Versions: 1 2 3 4 5 6 7 8 9 10 11 12 13 14 15 16 17
126
FTUS43 KTOP 161120
TAFMHK
TAF
KMHK 161120Z 1612/1712 05007KT 5SM -RA BR OVC005
     FM161800 VRB06KT 3SM BR VCSH OVC003
     FM170100 31008KT 5SM BR OVC008=

USA.gov is the U.S. government's official web portal to all federal, state and local government web resources and services.